sensor_id;sensor_type;location;lat;lon;timestamp;pressure;altitude;pressure_sealevel;temperature;humidity
46782;BME280;32541;46.298;11.506;2023-02-12T00:01:33;90836.78;;;1.17;69.65
46782;BME280;32541;46.298;11.506;2023-02-12T00:03:58;90842.75;;;1.43;69.20
46782;BME280;32541;46.298;11.506;2023-02-12T00:06:24;90844.22;;;1.33;69.43
46782;BME280;32541;46.298;11.506;2023-02-12T00:08:52;90841.00;;;1.29;69.47
46782;BME280;32541;46.298;11.506;2023-02-12T00:11:21;90841.50;;;1.22;69.61
46782;BME280;32541;46.298;11.506;2023-02-12T00:13:46;90836.78;;;1.17;69.56
46782;BME280;32541;46.298;11.506;2023-02-12T00:16:14;90839.25;;;1.15;70.04
46782;BME280;32541;46.298;11.506;2023-02-12T00:18:40;90833.09;;;1.14;70.02
46782;BME280;32541;46.298;11.506;2023-02-12T00:21:06;90832.09;;;1.06;69.51
46782;BME280;32541;46.298;11.506;2023-02-12T00:23:37;90828.66;;;1.11;69.73
46782;BME280;32541;46.298;11.506;2023-02-12T00:26:07;90826.94;;;1.13;69.69
46782;BME280;32541;46.298;11.506;2023-02-12T00:28:33;90827.91;;;1.05;69.66
46782;BME280;32541;46.298;11.506;2023-02-12T00:31:04;90827.91;;;1.16;68.81
46782;BME280;32541;46.298;11.506;2023-02-12T00:33:29;90831.16;;;1.26;68.85
46782;BME280;32541;46.298;11.506;2023-02-12T00:35:55;90823.28;;;1.28;69.00
46782;BME280;32541;46.298;11.506;2023-02-12T00:38:21;90819.31;;;1.23;68.42
46782;BME280;32541;46.298;11.506;2023-02-12T00:40:46;90825.50;;;1.24;68.55
46782;BME280;32541;46.298;11.506;2023-02-12T00:43:12;90825.25;;;1.22;68.67
46782;BME280;32541;46.298;11.506;2023-02-12T00:45:37;90818.09;;;1.30;68.03
46782;BME280;32541;46.298;11.506;2023-02-12T00:48:03;90822.03;;;1.23;68.16
46782;BME280;32541;46.298;11.506;2023-02-12T00:50:28;90827.22;;;1.27;68.34
46782;BME280;32541;46.298;11.506;2023-02-12T00:52:54;90826.00;;;1.28;68.09
46782;BME280;32541;46.298;11.506;2023-02-12T00:55:20;90820.56;;;1.28;68.15
46782;BME280;32541;46.298;11.506;2023-02-12T00:57:45;90811.72;;;1.33;67.80
46782;BME280;32541;46.298;11.506;2023-02-12T01:00:12;90822.53;;;1.27;67.95
46782;BME280;32541;46.298;11.506;2023-02-12T01:02:37;90831.13;;;1.20;68.34
46782;BME280;32541;46.298;11.506;2023-02-12T01:05:03;90835.81;;;1.20;68.50
46782;BME280;32541;46.298;11.506;2023-02-12T01:07:29;90829.41;;;1.23;68.36
46782;BME280;32541;46.298;11.506;2023-02-12T01:09:55;90829.41;;;1.11;68.44
46782;BME280;32541;46.298;11.506;2023-02-12T01:12:20;90827.22;;;1.21;68.29
46782;BME280;32541;46.298;11.506;2023-02-12T01:14:45;90827.44;;;1.18;68.29
46782;BME280;32541;46.298;11.506;2023-02-12T01:17:11;90833.16;;;1.42;68.04
46782;BME280;32541;46.298;11.506;2023-02-12T01:19:36;90836.81;;;1.22;68.45
46782;BME280;32541;46.298;11.506;2023-02-12T01:22:02;90833.31;;;1.10;68.68
46782;BME280;32541;46.298;11.506;2023-02-12T01:24:27;90841.19;;;1.03;69.23
46782;BME280;32541;46.298;11.506;2023-02-12T01:26:52;90844.38;;;0.96;69.44
46782;BME280;32541;46.298;11.506;2023-02-12T01:29:18;90832.34;;;1.02;69.00
46782;BME280;32541;46.298;11.506;2023-02-12T01:31:43;90827.91;;;0.99;69.02
46782;BME280;32541;46.298;11.506;2023-02-12T01:34:10;90813.59;;;0.99;69.66
46782;BME280;32541;46.298;11.506;2023-02-12T01:36:35;90820.50;;;0.94;70.07
46782;BME280;32541;46.298;11.506;2023-02-12T01:39:02;90819.78;;;1.05;69.07
46782;BME280;32541;46.298;11.506;2023-02-12T01:41:31;90814.59;;;1.01;69.24
46782;BME280;32541;46.298;11.506;2023-02-12T01:44:24;90801.78;;;0.96;69.78
46782;BME280;32541;46.298;11.506;2023-02-12T01:46:58;90802.31;;;1.00;69.05
46782;BME280;32541;46.298;11.506;2023-02-12T01:54:35;90808.72;;;1.20;69.21
46782;BME280;32541;46.298;11.506;2023-02-12T01:57:03;90799.88;;;1.25;68.73
46782;BME280;32541;46.298;11.506;2023-02-12T01:59:30;90803.03;;;1.01;70.28
46782;BME280;32541;46.298;11.506;2023-02-12T02:01:56;90798.84;;;0.94;71.12
46782;BME280;32541;46.298;11.506;2023-02-12T02:04:28;90805.97;;;0.92;70.97
46782;BME280;32541;46.298;11.506;2023-02-12T02:07:01;90801.03;;;0.85;70.95
46782;BME280;32541;46.298;11.506;2023-02-12T02:09:28;90795.84;;;0.81;71.03
46782;BME280;32541;46.298;11.506;2023-02-12T02:11:54;90796.16;;;1.00;70.05
46782;BME280;32541;46.298;11.506;2023-02-12T02:14:39;90793.69;;;1.02;69.66
46782;BME280;32541;46.298;11.506;2023-02-12T02:25:39;90786.06;;;1.23;69.69
46782;BME280;32541;46.298;11.506;2023-02-12T02:30:56;90798.84;;;1.05;69.92
46782;BME280;32541;46.298;11.506;2023-02-12T02:33:50;90805.50;;;1.10;69.81
46782;BME280;32541;46.298;11.506;2023-02-12T02:41:49;90795.69;;;1.18;69.61
46782;BME280;32541;46.298;11.506;2023-02-12T02:44:22;90791.50;;;1.17;69.78
46782;BME280;32541;46.298;11.506;2023-02-12T02:46:49;90800.34;;;1.06;69.99
46782;BME280;32541;46.298;11.506;2023-02-12T02:49:22;90792.47;;;1.08;69.82
46782;BME280;32541;46.298;11.506;2023-02-12T02:51:52;90794.94;;;1.06;69.47
46782;BME280;32541;46.298;11.506;2023-02-12T02:54:32;90788.78;;;1.11;70.64
46782;BME280;32541;46.298;11.506;2023-02-12T02:57:04;90781.63;;;1.08;69.91
46782;BME280;32541;46.298;11.506;2023-02-12T02:59:36;90795.44;;;1.22;68.99
46782;BME280;32541;46.298;11.506;2023-02-12T03:04:45;90775.00;;;1.15;69.21
46782;BME280;32541;46.298;11.506;2023-02-12T03:07:20;90792.47;;;1.20;69.15
46782;BME280;32541;46.298;11.506;2023-02-12T03:09:47;90780.19;;;1.19;69.80
46782;BME280;32541;46.298;11.506;2023-02-12T03:12:19;90787.06;;;1.20;69.62
46782;BME280;32541;46.298;11.506;2023-02-12T03:14:52;90784.63;;;1.33;68.69
46782;BME280;32541;46.298;11.506;2023-02-12T03:17:26;90789.28;;;1.49;68.06
46782;BME280;32541;46.298;11.506;2023-02-12T03:19:57;90794.94;;;1.40;68.64
46782;BME280;32541;46.298;11.506;2023-02-12T03:22:30;90796.66;;;1.43;68.49
46782;BME280;32541;46.298;11.506;2023-02-12T03:25:12;90800.88;;;1.33;68.60
46782;BME280;32541;46.298;11.506;2023-02-12T03:30:34;90798.63;;;1.20;68.24
46782;BME280;32541;46.298;11.506;2023-02-12T03:35:36;90797.13;;;1.08;68.97
46782;BME280;32541;46.298;11.506;2023-02-12T03:38:33;90797.13;;;1.13;68.42
46782;BME280;32541;46.298;11.506;2023-02-12T03:41:38;90798.88;;;1.17;68.69
46782;BME280;32541;46.298;11.506;2023-02-12T03:49:46;90794.94;;;1.40;67.77
46782;BME280;32541;46.298;11.506;2023-02-12T03:52:12;90800.13;;;1.27;68.07
46782;BME280;32541;46.298;11.506;2023-02-12T03:54:38;90792.47;;;1.25;68.54
46782;BME280;32541;46.298;11.506;2023-02-12T03:57:16;90792.22;;;1.06;68.97
46782;BME280;32541;46.298;11.506;2023-02-12T03:59:43;90797.34;;;0.93;69.57
46782;BME280;32541;46.298;11.506;2023-02-12T04:02:09;90801.56;;;0.94;69.30
46782;BME280;32541;46.298;11.506;2023-02-12T04:04:35;90793.16;;;0.87;69.53
46782;BME280;32541;46.298;11.506;2023-02-12T04:07:01;90786.28;;;0.86;69.70
46782;BME280;32541;46.298;11.506;2023-02-12T04:09:27;90795.13;;;0.86;69.92
46782;BME280;32541;46.298;11.506;2023-02-12T04:18:06;90795.16;;;0.97;69.31
46782;BME280;32541;46.298;11.506;2023-02-12T04:20:53;90788.25;;;0.91;69.08
46782;BME280;32541;46.298;11.506;2023-02-12T04:23:39;90792.16;;;0.90;68.77
46782;BME280;32541;46.298;11.506;2023-02-12T04:26:24;90798.09;;;0.88;69.15
46782;BME280;32541;46.298;11.506;2023-02-12T04:28:58;90792.66;;;0.77;69.17
46782;BME280;32541;46.298;11.506;2023-02-12T04:31:34;90788.47;;;0.76;68.96
46782;BME280;32541;46.298;11.506;2023-02-12T04:34:17;90788.94;;;0.80;68.92
46782;BME280;32541;46.298;11.506;2023-02-12T04:36:50;90781.31;;;0.79;68.63
46782;BME280;32541;46.298;11.506;2023-02-12T04:39:22;90780.59;;;0.84;68.43
46782;BME280;32541;46.298;11.506;2023-02-12T04:41:50;90784.53;;;0.77;68.79
46782;BME280;32541;46.298;11.506;2023-02-12T04:44:23;90776.13;;;0.70;68.88
46782;BME280;32541;46.298;11.506;2023-02-12T04:46:49;90776.13;;;0.75;68.59
46782;BME280;32541;46.298;11.506;2023-02-12T04:49:17;90781.56;;;0.75;68.61
46782;BME280;32541;46.298;11.506;2023-02-12T04:51:43;90783.25;;;0.62;69.83
46782;BME280;32541;46.298;11.506;2023-02-12T04:54:08;90790.38;;;0.59;69.67
46782;BME280;32541;46.298;11.506;2023-02-12T04:56:34;90799.50;;;0.62;68.87
46782;BME280;32541;46.298;11.506;2023-02-12T04:59:00;90795.03;;;0.59;69.22
46782;BME280;32541;46.298;11.506;2023-02-12T05:01:25;90812.22;;;0.44;69.00
46782;BME280;32541;46.298;11.506;2023-02-12T05:03:50;90817.66;;;0.50;69.23
46782;BME280;32541;46.298;11.506;2023-02-12T05:06:16;90810.19;;;0.34;70.06
46782;BME280;32541;46.298;11.506;2023-02-12T05:08:41;90807.47;;;0.34;69.69
46782;BME280;32541;46.298;11.506;2023-02-12T05:11:08;90821.75;;;0.34;70.39
46782;BME280;32541;46.298;11.506;2023-02-12T05:13:34;90816.09;;;0.32;70.07
46782;BME280;32541;46.298;11.506;2023-02-12T05:16:05;90824.47;;;0.40;69.13
46782;BME280;32541;46.298;11.506;2023-02-12T05:18:32;90819.78;;;0.29;70.54
46782;BME280;32541;46.298;11.506;2023-02-12T05:20:58;90829.31;;;0.25;70.38
46782;BME280;32541;46.298;11.506;2023-02-12T05:23:28;90826.19;;;0.37;69.23
46782;BME280;32541;46.298;11.506;2023-02-12T05:25:57;90823.94;;;0.30;69.95
46782;BME280;32541;46.298;11.506;2023-02-12T05:28:23;90832.63;;;0.51;68.05
46782;BME280;32541;46.298;11.506;2023-02-12T05:30:49;90836.78;;;0.41;69.50
46782;BME280;32541;46.298;11.506;2023-02-12T05:33:14;90829.66;;;0.38;69.41
46782;BME280;32541;46.298;11.506;2023-02-12T05:35:39;90835.50;;;0.31;69.10
46782;BME280;32541;46.298;11.506;2023-02-12T05:38:05;90835.56;;;0.42;68.44
46782;BME280;32541;46.298;11.506;2023-02-12T05:40:30;90835.13;;;0.54;68.71
46782;BME280;32541;46.298;11.506;2023-02-12T05:42:56;90832.66;;;0.56;68.30
46782;BME280;32541;46.298;11.506;2023-02-12T05:45:21;90818.63;;;0.52;68.14
46782;BME280;32541;46.298;11.506;2023-02-12T05:47:55;90828.69;;;0.46;68.02
46782;BME280;32541;46.298;11.506;2023-02-12T05:50:21;90819.63;;;0.55;68.40
46782;BME280;32541;46.298;11.506;2023-02-12T05:52:46;90813.91;;;0.42;68.54
46782;BME280;32541;46.298;11.506;2023-02-12T05:55:12;90813.66;;;0.40;68.67
46782;BME280;32541;46.298;11.506;2023-02-12T05:57:37;90817.59;;;0.39;68.68
46782;BME280;32541;46.298;11.506;2023-02-12T06:00:04;90822.03;;;0.42;69.05
46782;BME280;32541;46.298;11.506;2023-02-12T06:02:29;90818.13;;;0.54;68.07
46782;BME280;32541;46.298;11.506;2023-02-12T06:04:55;90812.25;;;0.50;67.84
46782;BME280;32541;46.298;11.506;2023-02-12T06:07:20;90813.91;;;0.42;68.77
46782;BME280;32541;46.298;11.506;2023-02-12T06:09:45;90810.72;;;0.38;69.06
46782;BME280;32541;46.298;11.506;2023-02-12T06:12:11;90801.09;;;0.37;68.68
46782;BME280;32541;46.298;11.506;2023-02-12T06:14:36;90799.31;;;0.23;69.44
46782;BME280;32541;46.298;11.506;2023-02-12T06:17:01;90807.94;;;0.27;68.82
46782;BME280;32541;46.298;11.506;2023-02-12T06:19:27;90808.44;;;0.25;69.10
46782;BME280;32541;46.298;11.506;2023-02-12T06:21:52;90810.63;;;0.21;68.84
46782;BME280;32541;46.298;11.506;2023-02-12T06:24:18;90817.03;;;0.24;68.39
46782;BME280;32541;46.298;11.506;2023-02-12T06:26:44;90828.13;;;0.31;68.80
46782;BME280;32541;46.298;11.506;2023-02-12T06:29:10;90824.44;;;0.29;69.29
46782;BME280;32541;46.298;11.506;2023-02-12T06:31:36;90833.53;;;0.26;68.24
46782;BME280;32541;46.298;11.506;2023-02-12T06:34:07;90826.13;;;0.21;68.71
46782;BME280;32541;46.298;11.506;2023-02-12T06:36:34;90827.81;;;0.18;68.80
46782;BME280;32541;46.298;11.506;2023-02-12T06:39:01;90836.47;;;0.28;68.92
46782;BME280;32541;46.298;11.506;2023-02-12T06:41:27;90832.03;;;0.25;69.14
46782;BME280;32541;46.298;11.506;2023-02-12T06:43:52;90835.25;;;0.29;68.31
46782;BME280;32541;46.298;11.506;2023-02-12T06:46:18;90836.50;;;0.33;68.71
46782;BME280;32541;46.298;11.506;2023-02-12T06:48:44;90843.91;;;0.38;69.04
46782;BME280;32541;46.298;11.506;2023-02-12T06:51:12;90852.50;;;0.37;69.23
46782;BME280;32541;46.298;11.506;2023-02-12T06:53:38;90847.31;;;0.33;69.01
46782;BME280;32541;46.298;11.506;2023-02-12T06:56:06;90857.16;;;0.36;69.13
46782;BME280;32541;46.298;11.506;2023-02-12T06:58:35;90872.22;;;0.43;68.38
46782;BME280;32541;46.298;11.506;2023-02-12T07:01:28;90872.75;;;0.52;68.42
46782;BME280;32541;46.298;11.506;2023-02-12T07:03:59;90876.69;;;0.57;68.66
46782;BME280;32541;46.298;11.506;2023-02-12T07:06:25;90878.94;;;0.59;68.70
46782;BME280;32541;46.298;11.506;2023-02-12T07:08:51;90873.78;;;0.61;68.39
46782;BME280;32541;46.298;11.506;2023-02-12T07:11:17;90871.31;;;0.63;68.16
46782;BME280;32541;46.298;11.506;2023-02-12T07:13:43;90876.03;;;0.68;69.06
46782;BME280;32541;46.298;11.506;2023-02-12T07:16:12;90877.69;;;0.60;69.23
46782;BME280;32541;46.298;11.506;2023-02-12T07:18:38;90879.94;;;0.67;67.91
46782;BME280;32541;46.298;11.506;2023-02-12T07:21:05;90870.41;;;0.77;68.11
46782;BME280;32541;46.298;11.506;2023-02-12T07:23:32;90876.06;;;0.73;68.71
46782;BME280;32541;46.298;11.506;2023-02-12T07:26:00;90868.91;;;0.76;68.16
46782;BME280;32541;46.298;11.506;2023-02-12T07:28:25;90870.44;;;0.88;68.58
46782;BME280;32541;46.298;11.506;2023-02-12T07:30:51;90878.78;;;0.84;68.37
46782;BME280;32541;46.298;11.506;2023-02-12T07:33:17;90876.59;;;0.88;67.27
46782;BME280;32541;46.298;11.506;2023-02-12T07:35:43;90875.00;;;1.24;65.86
46782;BME280;32541;46.298;11.506;2023-02-12T07:38:09;90871.88;;;1.92;65.06
46782;BME280;32541;46.298;11.506;2023-02-12T07:40:34;90868.78;;;3.72;60.58
46782;BME280;32541;46.298;11.506;2023-02-12T07:42:59;90865.47;;;6.42;53.56
46782;BME280;32541;46.298;11.506;2023-02-12T07:45:25;90863.31;;;8.80;47.48
46782;BME280;32541;46.298;11.506;2023-02-12T07:47:50;90870.78;;;10.82;43.58
46782;BME280;32541;46.298;11.506;2023-02-12T07:50:16;90872.00;;;10.35;41.59
46782;BME280;32541;46.298;11.506;2023-02-12T07:52:42;90864.00;;;11.13;41.29
46782;BME280;32541;46.298;11.506;2023-02-12T07:55:07;90857.50;;;11.71;39.56
46782;BME280;32541;46.298;11.506;2023-02-12T07:57:36;90860.78;;;13.39;38.12
46782;BME280;32541;46.298;11.506;2023-02-12T08:00:03;90866.41;;;15.05;34.94
46782;BME280;32541;46.298;11.506;2023-02-12T08:02:28;90864.44;;;15.61;33.57
46782;BME280;32541;46.298;11.506;2023-02-12T08:04:55;90861.41;;;15.76;33.17
46782;BME280;32541;46.298;11.506;2023-02-12T08:07:20;90875.31;;;16.33;32.18
46782;BME280;32541;46.298;11.506;2023-02-12T08:09:46;90859.50;;;16.84;30.99
46782;BME280;32541;46.298;11.506;2023-02-12T08:12:11;90868.81;;;14.64;33.31
46782;BME280;32541;46.298;11.506;2023-02-12T08:14:36;90870.81;;;14.81;33.53
46782;BME280;32541;46.298;11.506;2023-02-12T08:17:02;90870.34;;;15.38;33.57
46782;BME280;32541;46.298;11.506;2023-02-12T08:19:28;90875.81;;;14.92;33.56
46782;BME280;32541;46.298;11.506;2023-02-12T08:21:54;90875.59;;;14.54;34.45
46782;BME280;32541;46.298;11.506;2023-02-12T08:24:20;90872.16;;;15.16;33.30
46782;BME280;32541;46.298;11.506;2023-02-12T08:26:49;90868.59;;;15.06;33.37
46782;BME280;32541;46.298;11.506;2023-02-12T08:29:18;90872.63;;;14.25;34.47
46782;BME280;32541;46.298;11.506;2023-02-12T08:31:46;90876.72;;;13.89;34.55
46782;BME280;32541;46.298;11.506;2023-02-12T08:34:18;90880.38;;;13.33;35.00
46782;BME280;32541;46.298;11.506;2023-02-12T08:36:44;90873.09;;;13.20;35.67
46782;BME280;32541;46.298;11.506;2023-02-12T08:39:10;90874.94;;;13.43;36.31
46782;BME280;32541;46.298;11.506;2023-02-12T08:41:36;90877.06;;;13.52;34.77
46782;BME280;32541;46.298;11.506;2023-02-12T08:44:03;90876.84;;;12.51;36.45
46782;BME280;32541;46.298;11.506;2023-02-12T08:46:31;90892.63;;;10.80;39.51
46782;BME280;32541;46.298;11.506;2023-02-12T08:49:00;90884.75;;;11.22;38.87
46782;BME280;32541;46.298;11.506;2023-02-12T08:51:34;90877.81;;;11.98;38.33
46782;BME280;32541;46.298;11.506;2023-02-12T08:54:05;90866.00;;;12.53;37.11
46782;BME280;32541;46.298;11.506;2023-02-12T08:56:32;90861.94;;;13.11;36.73
46782;BME280;32541;46.298;11.506;2023-02-12T08:58:59;90861.28;;;13.45;35.17
46782;BME280;32541;46.298;11.506;2023-02-12T09:01:27;90863.97;;;12.13;37.00
46782;BME280;32541;46.298;11.506;2023-02-12T09:03:52;90870.81;;;11.04;38.53
46782;BME280;32541;46.298;11.506;2023-02-12T09:06:20;90867.16;;;9.70;42.49
46782;BME280;32541;46.298;11.506;2023-02-12T09:08:46;90877.25;;;9.11;44.09
46782;BME280;32541;46.298;11.506;2023-02-12T09:11:16;90881.72;;;9.49;42.87
46782;BME280;32541;46.298;11.506;2023-02-12T09:13:44;90880.47;;;10.01;41.80
46782;BME280;32541;46.298;11.506;2023-02-12T09:16:10;90868.94;;;10.77;41.37
46782;BME280;32541;46.298;11.506;2023-02-12T09:18:36;90862.28;;;11.55;39.47
46782;BME280;32541;46.298;11.506;2023-02-12T09:21:05;90857.34;;;12.16;37.27
46782;BME280;32541;46.298;11.506;2023-02-12T09:23:31;90855.47;;;12.83;36.94
46782;BME280;32541;46.298;11.506;2023-02-12T09:25:57;90851.44;;;12.20;37.19
46782;BME280;32541;46.298;11.506;2023-02-12T09:28:22;90859.63;;;11.95;37.68
46782;BME280;32541;46.298;11.506;2023-02-12T09:30:48;90859.84;;;11.90;38.32
46782;BME280;32541;46.298;11.506;2023-02-12T09:33:13;90869.88;;;11.17;40.03
46782;BME280;32541;46.298;11.506;2023-02-12T09:35:39;90869.88;;;9.26;43.01
46782;BME280;32541;46.298;11.506;2023-02-12T09:38:06;90877.31;;;9.54;42.63
46782;BME280;32541;46.298;11.506;2023-02-12T09:43:35;90875.56;;;9.64;42.61
46782;BME280;32541;46.298;11.506;2023-02-12T09:51:24;90865.03;;;12.18;38.38
46782;BME280;32541;46.298;11.506;2023-02-12T09:54:00;90861.94;;;11.44;38.26
46782;BME280;32541;46.298;11.506;2023-02-12T09:56:27;90859.91;;;11.52;37.97
46782;BME280;32541;46.298;11.506;2023-02-12T09:58:56;90860.38;;;11.96;36.92
46782;BME280;32541;46.298;11.506;2023-02-12T10:01:23;90861.97;;;12.06;37.57
46782;BME280;32541;46.298;11.506;2023-02-12T10:03:50;90868.00;;;11.50;38.43
46782;BME280;32541;46.298;11.506;2023-02-12T10:06:36;90861.97;;;11.21;38.37
46782;BME280;32541;46.298;11.506;2023-02-12T10:09:14;90860.84;;;11.32;38.82
46782;BME280;32541;46.298;11.506;2023-02-12T10:14:28;90866.88;;;11.53;39.25
46782;BME280;32541;46.298;11.506;2023-02-12T10:17:12;90862.13;;;11.46;39.31
46782;BME280;32541;46.298;11.506;2023-02-12T10:23:00;90870.16;;;9.79;41.46
46782;BME280;32541;46.298;11.506;2023-02-12T10:25:33;90864.28;;;9.11;41.73
46782;BME280;32541;46.298;11.506;2023-02-12T10:28:08;90874.47;;;8.41;43.11
46782;BME280;32541;46.298;11.506;2023-02-12T10:30:48;90869.53;;;8.60;43.48
46782;BME280;32541;46.298;11.506;2023-02-12T10:33:19;90866.91;;;8.96;43.01
46782;BME280;32541;46.298;11.506;2023-02-12T10:35:50;90857.94;;;8.96;43.45
46782;BME280;32541;46.298;11.506;2023-02-12T10:38:22;90865.84;;;9.27;43.47
46782;BME280;32541;46.298;11.506;2023-02-12T10:40:50;90850.94;;;9.43;42.22
46782;BME280;32541;46.298;11.506;2023-02-12T10:43:15;90854.09;;;9.55;41.63
46782;BME280;32541;46.298;11.506;2023-02-12T10:45:42;90853.53;;;9.57;42.09
46782;BME280;32541;46.298;11.506;2023-02-12T10:48:19;90849.94;;;9.62;42.19
46782;BME280;32541;46.298;11.506;2023-02-12T10:53:43;90850.34;;;9.73;42.49
46782;BME280;32541;46.298;11.506;2023-02-12T10:58:49;90841.88;;;9.71;42.50
46782;BME280;32541;46.298;11.506;2023-02-12T11:01:20;90840.81;;;9.74;43.58
46782;BME280;32541;46.298;11.506;2023-02-12T11:03:46;90836.63;;;9.81;43.47
46782;BME280;32541;46.298;11.506;2023-02-12T11:06:15;90838.31;;;9.91;42.68
46782;BME280;32541;46.298;11.506;2023-02-12T11:08:42;90838.00;;;10.02;43.10
46782;BME280;32541;46.298;11.506;2023-02-12T11:11:13;90824.22;;;9.95;44.97
46782;BME280;32541;46.298;11.506;2023-02-12T11:13:46;90822.06;;;10.09;44.98
46782;BME280;32541;46.298;11.506;2023-02-12T11:16:50;90819.56;;;10.26;44.07
46782;BME280;32541;46.298;11.506;2023-02-12T11:19:21;90809.16;;;10.47;44.55
46782;BME280;32541;46.298;11.506;2023-02-12T11:21:47;90807.50;;;10.67;43.34
46782;BME280;32541;46.298;11.506;2023-02-12T11:26:50;90803.81;;;9.75;43.97
46782;BME280;32541;46.298;11.506;2023-02-12T11:29:20;90805.81;;;9.67;41.68
46782;BME280;32541;46.298;11.506;2023-02-12T11:32:06;90811.88;;;9.73;41.42
46782;BME280;32541;46.298;11.506;2023-02-12T11:34:36;90793.13;;;9.49;41.13
46782;BME280;32541;46.298;11.506;2023-02-12T11:37:02;90787.44;;;10.05;40.89
46782;BME280;32541;46.298;11.506;2023-02-12T11:39:32;90779.03;;;11.02;40.10
46782;BME280;32541;46.298;11.506;2023-02-12T11:42:01;90773.09;;;11.91;38.41
46782;BME280;32541;46.298;11.506;2023-02-12T11:44:39;90761.44;;;12.64;37.79
46782;BME280;32541;46.298;11.506;2023-02-12T11:47:09;90758.72;;;13.41;35.46
46782;BME280;32541;46.298;11.506;2023-02-12T11:49:49;90755.47;;;13.69;35.11
46782;BME280;32541;46.298;11.506;2023-02-12T11:52:21;90755.63;;;13.71;35.08
46782;BME280;32541;46.298;11.506;2023-02-12T11:54:50;90752.13;;;14.14;33.94
46782;BME280;32541;46.298;11.506;2023-02-12T12:00:02;90741.75;;;14.59;32.29
46782;BME280;32541;46.298;11.506;2023-02-12T12:02:33;90746.13;;;14.62;31.94
46782;BME280;32541;46.298;11.506;2023-02-12T12:05:13;90741.84;;;13.54;33.39
46782;BME280;32541;46.298;11.506;2023-02-12T12:07:44;90734.88;;;13.79;33.58
46782;BME280;32541;46.298;11.506;2023-02-12T12:10:30;90731.81;;;14.02;31.99
46782;BME280;32541;46.298;11.506;2023-02-12T12:12:58;90733.63;;;13.90;33.78
46782;BME280;32541;46.298;11.506;2023-02-12T12:15:29;90734.81;;;13.70;33.72
46782;BME280;32541;46.298;11.506;2023-02-12T12:18:36;90725.41;;;13.56;34.26
46782;BME280;32541;46.298;11.506;2023-02-12T12:23:58;90723.84;;;14.06;32.16
46782;BME280;32541;46.298;11.506;2023-02-12T12:26:27;90719.78;;;14.07;32.16
46782;BME280;32541;46.298;11.506;2023-02-12T12:29:02;90711.38;;;14.41;33.07
46782;BME280;32541;46.298;11.506;2023-02-12T12:32:14;90710.19;;;14.71;31.53
46782;BME280;32541;46.298;11.506;2023-02-12T12:34:22;90709.78;;;14.94;32.07
46782;BME280;32541;46.298;11.506;2023-02-12T13:01:29;90679.78;;;15.10;31.67
46782;BME280;32541;46.298;11.506;2023-02-12T13:09:10;90687.22;;;14.15;33.15
46782;BME280;32541;46.298;11.506;2023-02-12T13:14:45;90674.72;;;15.25;32.13
46782;BME280;32541;46.298;11.506;2023-02-12T13:17:30;90670.19;;;15.78;32.30
46782;BME280;32541;46.298;11.506;2023-02-12T13:23:19;90668.75;;;15.67;32.00
46782;BME280;32541;46.298;11.506;2023-02-12T13:26:25;90665.09;;;15.17;30.86
46782;BME280;32541;46.298;11.506;2023-02-12T13:28:57;90663.47;;;15.33;30.68
46782;BME280;32541;46.298;11.506;2023-02-12T13:31:27;90672.44;;;14.66;32.18
46782;BME280;32541;46.298;11.506;2023-02-12T13:33:56;90661.91;;;14.28;32.73
46782;BME280;32541;46.298;11.506;2023-02-12T13:36:22;90658.34;;;14.91;32.12
46782;BME280;32541;46.298;11.506;2023-02-12T13:41:39;90669.94;;;14.61;31.69
46782;BME280;32541;46.298;11.506;2023-02-12T13:44:19;90661.16;;;14.18;32.89
46782;BME280;32541;46.298;11.506;2023-02-12T13:50:06;90652.06;;;15.00;31.55
46782;BME280;32541;46.298;11.506;2023-02-12T13:52:53;90656.28;;;14.91;32.26
46782;BME280;32541;46.298;11.506;2023-02-12T13:55:32;90651.22;;;15.07;32.02
46782;BME280;32541;46.298;11.506;2023-02-12T14:01:00;90654.22;;;14.73;32.25
46782;BME280;32541;46.298;11.506;2023-02-12T14:03:27;90650.88;;;14.74;33.49
46782;BME280;32541;46.298;11.506;2023-02-12T14:06:09;90649.56;;;14.85;32.72
46782;BME280;32541;46.298;11.506;2023-02-12T14:08:38;90650.41;;;14.59;32.56
46782;BME280;32541;46.298;11.506;2023-02-12T14:11:10;90651.66;;;14.38;33.39
46782;BME280;32541;46.298;11.506;2023-02-12T14:13:47;90642.03;;;14.95;33.08
46782;BME280;32541;46.298;11.506;2023-02-12T14:16:39;90635.69;;;14.56;32.04
46782;BME280;32541;46.298;11.506;2023-02-12T14:19:51;90644.31;;;14.70;32.44
46782;BME280;32541;46.298;11.506;2023-02-12T14:24:54;90659.16;;;14.65;33.60
46782;BME280;32541;46.298;11.506;2023-02-12T14:27:33;90649.16;;;14.98;32.06
46782;BME280;32541;46.298;11.506;2023-02-12T14:30:20;90649.63;;;15.42;32.16
46782;BME280;32541;46.298;11.506;2023-02-12T14:38:02;90642.88;;;15.93;31.78
46782;BME280;32541;46.298;11.506;2023-02-12T14:45:45;90645.72;;;16.24;30.92
46782;BME280;32541;46.298;11.506;2023-02-12T14:51:03;90639.88;;;16.20;30.97
46782;BME280;32541;46.298;11.506;2023-02-12T14:53:30;90642.66;;;16.20;30.56
46782;BME280;32541;46.298;11.506;2023-02-12T14:55:58;90643.53;;;16.13;31.26
46782;BME280;32541;46.298;11.506;2023-02-12T14:58:25;90653.63;;;16.18;31.18
46782;BME280;32541;46.298;11.506;2023-02-12T15:00:54;90656.72;;;16.03;30.81
46782;BME280;32541;46.298;11.506;2023-02-12T15:03:33;90666.66;;;15.87;30.79
46782;BME280;32541;46.298;11.506;2023-02-12T15:06:26;90678.81;;;15.82;31.16
46782;BME280;32541;46.298;11.506;2023-02-12T15:09:00;90682.19;;;15.61;31.81
46782;BME280;32541;46.298;11.506;2023-02-12T15:11:38;90680.28;;;15.64;30.68
46782;BME280;32541;46.298;11.506;2023-02-12T15:14:10;90672.22;;;15.39;31.58
46782;BME280;32541;46.298;11.506;2023-02-12T15:17:00;90689.13;;;15.05;32.23
46782;BME280;32541;46.298;11.506;2023-02-12T15:22:28;90690.06;;;14.34;33.18
46782;BME280;32541;46.298;11.506;2023-02-12T15:27:46;90710.13;;;13.38;33.76
46782;BME280;32541;46.298;11.506;2023-02-12T15:30:16;90705.34;;;13.21;34.71